createdAt,value
2023-05-16T00:03:03.534Z,1.65
2023-05-16T00:07:19.979Z,1.60
2023-05-16T00:11:36.214Z,1.60
2023-05-16T00:15:53.815Z,1.83
2023-05-16T00:20:11.377Z,1.95
2023-05-16T00:24:27.597Z,1.60
2023-05-16T00:28:44.422Z,1.67
2023-05-16T00:33:00.818Z,1.65
2023-05-16T00:37:17.173Z,1.60
2023-05-16T00:41:34.868Z,1.48
2023-05-16T00:45:51.069Z,1.60
2023-05-16T00:50:08.055Z,2.00
2023-05-16T00:54:27.234Z,1.80
2023-05-16T00:58:43.622Z,1.87
2023-05-16T01:03:00.850Z,1.87
2023-05-16T01:07:17.448Z,2.20
2023-05-16T01:11:56.751Z,1.80
2023-05-16T01:16:35.928Z,1.90
2023-05-16T01:21:04.210Z,1.70
2023-05-16T01:25:45.734Z,2.30
2023-05-16T01:30:02.484Z,2.10
2023-05-16T01:34:18.997Z,1.70
2023-05-16T01:38:42.119Z,1.50
2023-05-16T01:43:00.852Z,1.77
2023-05-16T01:47:19.710Z,1.50
2023-05-16T01:51:39.760Z,1.23
2023-05-16T01:56:01.832Z,1.42
2023-05-16T02:00:18.084Z,1.48
2023-05-16T02:04:34.636Z,1.50
2023-05-16T02:08:51.235Z,1.48
2023-05-16T02:13:07.460Z,1.45
2023-05-16T02:17:23.714Z,1.80
2023-05-16T02:21:40.237Z,1.77
2023-05-16T02:25:56.540Z,1.52
2023-05-16T02:30:13.170Z,1.58
2023-05-16T02:34:29.435Z,1.60
2023-05-16T02:38:45.714Z,1.87
2023-05-16T02:43:02.004Z,1.42
2023-05-16T02:47:18.219Z,1.58
2023-05-16T02:51:34.488Z,1.60
2023-05-16T02:55:50.721Z,1.42
2023-05-16T03:00:07.769Z,1.40
2023-05-16T03:04:23.982Z,1.58
2023-05-16T03:08:40.284Z,1.73
2023-05-16T03:12:56.548Z,1.70
2023-05-16T03:17:12.819Z,1.77
2023-05-16T03:21:29.063Z,1.62
2023-05-16T03:25:46.577Z,1.70
2023-05-16T03:30:02.828Z,1.65
2023-05-16T03:34:19.076Z,1.90
2023-05-16T03:38:35.668Z,1.92
2023-05-16T03:42:52.047Z,1.70
2023-05-16T03:47:08.294Z,1.40
2023-05-16T03:51:24.562Z,1.60
2023-05-16T03:55:40.983Z,1.40
2023-05-16T03:59:57.264Z,1.30
2023-05-16T04:04:14.456Z,1.30
2023-05-16T04:08:31.427Z,1.30
2023-05-16T04:12:47.618Z,1.50
2023-05-16T04:17:04.160Z,1.42
2023-05-16T04:21:20.679Z,1.40
2023-05-16T04:25:36.938Z,1.55
2023-05-16T04:29:53.320Z,1.40
2023-05-16T04:34:09.726Z,1.52
2023-05-16T04:38:26.777Z,2.05
2023-05-16T04:42:43.352Z,1.73
2023-05-16T04:46:59.863Z,1.42
2023-05-16T04:51:16.312Z,1.50
2023-05-16T04:55:32.608Z,1.40
2023-05-16T04:59:48.911Z,1.67
2023-05-16T05:04:05.410Z,1.60
2023-05-16T05:08:22.529Z,1.37
2023-05-16T05:12:39.050Z,1.60
2023-05-16T05:16:55.666Z,1.65
2023-05-16T05:21:11.983Z,1.58
2023-05-16T05:25:28.677Z,1.20
2023-05-16T05:29:45.107Z,1.50
2023-05-16T05:34:01.506Z,1.37
2023-05-16T05:38:17.716Z,1.40
2023-05-16T05:42:34.175Z,1.37
2023-05-16T05:46:50.580Z,1.75
2023-05-16T05:51:07.102Z,1.60
2023-05-16T05:55:23.369Z,2.15
2023-05-16T05:59:39.581Z,1.90
2023-05-16T06:03:55.955Z,2.20
2023-05-16T06:08:12.221Z,1.87
2023-05-16T06:12:28.467Z,1.80
2023-05-16T06:16:44.981Z,1.60
2023-05-16T06:21:01.357Z,1.80
2023-05-16T06:25:17.860Z,1.60
2023-05-16T06:29:34.132Z,1.75
2023-05-16T06:33:50.318Z,1.45
2023-05-16T06:38:06.504Z,1.85
2023-05-16T06:42:22.809Z,2.15
2023-05-16T06:46:39.229Z,1.60
2023-05-16T06:50:59.627Z,1.60
2023-05-16T06:55:16.137Z,1.98
2023-05-16T06:59:32.894Z,2.00
2023-05-16T07:03:49.358Z,2.20
2023-05-16T07:08:07.849Z,1.67
2023-05-16T07:12:24.429Z,2.08
2023-05-16T07:16:40.855Z,2.28
2023-05-16T07:20:57.235Z,2.33
2023-05-16T07:25:14.766Z,2.65
2023-05-16T07:29:31.185Z,2.37
2023-05-16T07:33:47.645Z,2.28
2023-05-16T07:38:04.053Z,2.92
2023-05-16T07:42:20.360Z,2.67
2023-05-16T07:46:36.783Z,2.58
2023-05-16T07:50:55.627Z,3.25
2023-05-16T07:55:12.168Z,3.40
2023-05-16T07:59:28.753Z,2.87
2023-05-16T08:03:45.148Z,3.00
2023-05-16T08:08:01.459Z,3.30
2023-05-16T08:12:17.844Z,3.58
2023-05-16T08:16:34.302Z,2.90
2023-05-16T08:20:51.523Z,3.17
2023-05-16T08:25:09.267Z,3.15
2023-05-16T08:29:25.631Z,3.42
2023-05-16T08:33:41.829Z,3.12
2023-05-16T08:38:00.634Z,3.92
2023-05-16T08:42:17.028Z,3.75
2023-05-16T08:46:36.153Z,3.62
2023-05-16T08:50:53.595Z,4.07
2023-05-16T08:55:11.858Z,4.07
2023-05-16T08:59:29.221Z,4.18
2023-05-16T09:03:45.952Z,4.35
2023-05-16T09:08:02.564Z,4.60
2023-05-16T09:12:20.232Z,4.20
2023-05-16T09:16:36.554Z,4.25
2023-05-16T09:20:53.872Z,5.50
2023-05-16T09:29:36.972Z,4.32
2023-05-16T09:33:59.441Z,4.62
2023-05-16T09:38:17.525Z,4.12
2023-05-16T09:42:33.984Z,3.40
2023-05-16T09:46:51.403Z,3.85
2023-05-16T09:51:08.275Z,4.00
2023-05-16T09:55:24.600Z,4.10
2023-05-16T09:59:43.974Z,3.65
2023-05-16T10:04:00.477Z,3.62
2023-05-16T10:08:16.862Z,4.00
2023-05-16T10:12:33.538Z,4.90
2023-05-16T10:16:50.273Z,4.12
2023-05-16T10:21:20.010Z,4.40
2023-05-16T10:25:41.981Z,4.72
2023-05-16T10:29:59.024Z,4.60
2023-05-16T10:34:16.466Z,5.28
2023-05-16T10:38:32.845Z,4.55
2023-05-16T10:43:04.111Z,5.00
2023-05-16T10:47:20.875Z,5.50
2023-05-16T10:51:39.145Z,5.55
2023-05-16T10:56:01.655Z,5.78
2023-05-16T11:00:24.355Z,5.83
2023-05-16T11:04:49.801Z,5.60
2023-05-16T11:09:12.143Z,5.53
2023-05-16T11:13:29.039Z,5.78
2023-05-16T11:17:46.304Z,4.87
2023-05-16T11:22:29.697Z,7.78
2023-05-16T11:26:46.046Z,7.45
2023-05-16T11:31:05.529Z,11.85
2023-05-16T11:35:21.815Z,8.45
2023-05-16T11:39:38.168Z,7.93
2023-05-16T11:43:54.481Z,5.18
2023-05-16T11:48:14.416Z,5.25
2023-05-16T11:52:33.614Z,4.53
2023-05-16T11:56:50.794Z,4.70
2023-05-16T12:01:08.308Z,4.35
2023-05-16T12:05:26.660Z,4.47
2023-05-16T12:09:43.316Z,5.05
2023-05-16T12:14:00.418Z,5.28
2023-05-16T12:18:33.048Z,4.70
2023-05-16T12:22:49.854Z,3.72
2023-05-16T12:27:08.512Z,3.45
2023-05-16T12:31:31.805Z,4.00
2023-05-16T12:35:48.936Z,3.70
2023-05-16T12:40:06.569Z,3.50
2023-05-16T12:44:23.898Z,3.45
2023-05-16T12:48:42.803Z,3.03
2023-05-16T12:53:01.321Z,3.75
2023-05-16T12:57:18.011Z,3.03
2023-05-16T13:01:36.168Z,8.38
2023-05-16T13:05:53.473Z,3.03
2023-05-16T13:10:11.149Z,2.95
2023-05-16T13:14:27.506Z,2.22
2023-05-16T13:18:43.941Z,2.58
2023-05-16T13:23:00.289Z,2.67
2023-05-16T13:27:21.414Z,2.53
2023-05-16T13:31:37.902Z,3.30
2023-05-16T13:35:55.710Z,2.78
2023-05-16T13:40:12.355Z,3.50
2023-05-16T13:44:28.861Z,3.55
2023-05-16T13:48:45.182Z,3.67
2023-05-16T13:53:01.480Z,4.00
2023-05-16T13:57:18.149Z,3.17
2023-05-16T14:01:36.922Z,4.60
2023-05-16T14:05:53.335Z,3.20
2023-05-16T14:10:10.388Z,3.80
2023-05-16T14:14:28.603Z,3.50
2023-05-16T14:18:45.213Z,3.62
2023-05-16T14:23:01.874Z,4.22
2023-05-16T14:27:18.416Z,3.78
2023-05-16T14:31:40.691Z,4.00
2023-05-16T14:35:57.122Z,3.83
2023-05-16T14:40:13.627Z,3.87
2023-05-16T14:44:30.619Z,3.92
2023-05-16T14:48:48.354Z,4.00
2023-05-16T14:53:05.063Z,4.28
2023-05-16T14:57:21.451Z,3.90
2023-05-16T15:01:38.275Z,4.05
2023-05-16T15:05:55.548Z,4.40
2023-05-16T15:10:12.771Z,4.20
2023-05-16T15:14:35.122Z,3.65
2023-05-16T15:18:52.316Z,3.80
2023-05-16T15:23:09.651Z,3.70
2023-05-16T15:27:26.478Z,4.15
2023-05-16T15:31:42.914Z,4.30
2023-05-16T15:35:59.286Z,4.53
2023-05-16T15:40:15.909Z,4.28
2023-05-16T15:44:32.528Z,5.28
2023-05-16T15:48:49.040Z,5.10
2023-05-16T15:53:05.397Z,4.90
2023-05-16T15:57:21.955Z,5.53
2023-05-16T16:01:38.307Z,4.87
2023-05-16T16:05:54.811Z,5.37
2023-05-16T16:10:13.174Z,5.93
2023-05-16T16:14:29.580Z,4.93
2023-05-16T16:18:46.170Z,4.95
2023-05-16T16:23:02.977Z,5.22
2023-05-16T16:27:34.256Z,5.28
2023-05-16T16:31:50.787Z,4.85
2023-05-16T16:36:21.241Z,5.45
2023-05-16T16:40:38.012Z,5.75
2023-05-16T16:44:54.547Z,6.00
2023-05-16T16:49:10.987Z,6.05
2023-05-16T16:53:27.260Z,5.93
2023-05-16T16:57:43.957Z,5.60
2023-05-16T17:02:00.560Z,5.28
2023-05-16T17:06:17.025Z,5.28
2023-05-16T17:10:33.640Z,5.93
2023-05-16T17:14:51.583Z,5.70
2023-05-16T17:19:08.613Z,5.20
2023-05-16T17:23:25.284Z,6.07
2023-05-16T17:27:42.049Z,6.25
2023-05-16T17:31:58.436Z,5.50
2023-05-16T17:36:14.772Z,5.47
2023-05-16T17:40:32.636Z,5.68
2023-05-16T17:44:58.551Z,5.22
2023-05-16T17:49:20.644Z,5.00
2023-05-16T17:53:38.170Z,5.05
2023-05-16T17:57:54.692Z,4.65
2023-05-16T18:02:15.382Z,4.50
2023-05-16T18:06:32.235Z,5.03
2023-05-16T18:10:51.497Z,4.47
2023-05-16T18:15:10.905Z,4.95
2023-05-16T18:19:27.496Z,5.22
2023-05-16T18:23:43.946Z,5.53
2023-05-16T18:28:00.257Z,4.55
2023-05-16T18:32:16.645Z,5.50
2023-05-16T18:36:33.046Z,4.85
2023-05-16T18:40:50.660Z,4.78
2023-05-16T18:45:07.678Z,4.68
2023-05-16T18:49:24.072Z,4.97
2023-05-16T18:53:40.482Z,5.15
2023-05-16T18:57:58.085Z,5.50
2023-05-16T19:02:14.417Z,5.30
2023-05-16T19:06:30.771Z,4.93
2023-05-16T19:10:47.080Z,5.20
2023-05-16T19:15:03.622Z,4.93
2023-05-16T19:19:20.033Z,4.60
2023-05-16T19:23:36.897Z,4.43
2023-05-16T19:27:53.545Z,4.65
2023-05-16T19:32:11.064Z,5.07
2023-05-16T19:36:27.569Z,5.15
2023-05-16T19:40:44.913Z,5.35
2023-05-16T19:45:01.195Z,4.97
2023-05-16T19:49:20.007Z,4.95
2023-05-16T19:53:36.590Z,5.18
2023-05-16T19:57:53.149Z,5.50
2023-05-16T20:02:09.834Z,5.43
2023-05-16T20:06:26.292Z,5.50
2023-05-16T20:10:42.856Z,5.65
2023-05-16T20:14:59.835Z,5.35
2023-05-16T20:19:24.597Z,5.37
2023-05-16T20:23:43.682Z,4.82
2023-05-16T20:28:00.977Z,4.45
2023-05-16T20:32:17.678Z,5.12
2023-05-16T20:36:34.974Z,5.18
2023-05-16T20:40:51.608Z,4.82
2023-05-16T20:45:08.729Z,5.18
2023-05-16T20:49:25.114Z,5.15
2023-05-16T20:53:41.643Z,5.03
2023-05-16T20:58:01.137Z,4.95
2023-05-16T21:02:18.546Z,4.85
2023-05-16T21:06:34.862Z,4.70
2023-05-16T21:10:51.293Z,4.45
2023-05-16T21:15:08.434Z,4.82
2023-05-16T21:19:25.027Z,5.00
2023-05-16T21:23:41.585Z,5.05
2023-05-16T21:27:57.919Z,5.15
2023-05-16T21:32:16.302Z,4.80
2023-05-16T21:36:33.326Z,5.28
2023-05-16T21:40:50.117Z,5.53
2023-05-16T21:45:12.728Z,4.80
2023-05-16T21:49:29.053Z,5.35
2023-05-16T21:53:46.899Z,4.72
2023-05-16T21:58:04.151Z,5.80
2023-05-16T22:02:23.204Z,5.22
2023-05-16T22:06:40.881Z,4.95
2023-05-16T22:10:57.225Z,4.90
2023-05-16T22:15:13.748Z,4.78
2023-05-16T22:19:30.035Z,5.53
2023-05-16T22:23:46.323Z,5.28
2023-05-16T22:28:02.624Z,5.55
2023-05-16T22:32:18.963Z,4.78
2023-05-16T22:36:35.329Z,5.37
2023-05-16T22:40:51.670Z,5.45
2023-05-16T22:45:08.567Z,5.55
2023-05-16T22:49:24.960Z,4.78
2023-05-16T22:53:41.369Z,5.70
2023-05-16T22:57:59.976Z,4.70
2023-05-16T23:02:16.302Z,5.65
2023-05-16T23:06:32.819Z,5.12
2023-05-16T23:10:49.260Z,6.07
2023-05-16T23:15:10.408Z,5.37
2023-05-16T23:19:27.105Z,4.95
2023-05-16T23:23:43.496Z,5.47
2023-05-16T23:27:59.826Z,5.65
2023-05-16T23:32:16.118Z,5.20
2023-05-16T23:36:32.460Z,4.50
2023-05-16T23:40:48.785Z,4.87
2023-05-16T23:45:05.419Z,4.85
2023-05-16T23:49:21.718Z,5.00
2023-05-16T23:53:38.615Z,5.10
2023-05-16T23:57:54.808Z,5.70
